Tastrup, Denmark
Current Conditions -  °F | °C
As of 11:50 AM on Friday 28 Nov 2014 (Local Time) from EKRK Reporting Station
Few Clouds Few Clouds  
Wind Chill: 30°   Ceiling: Unl
Heat Index: 39°   Visibility: 6mi
Dew Point: 34°   Wind: 20mph
Humidity: 81%   Direction: 100°E
Pressure: 30.24"   Gusts: 31mph
Location:  55.65°N, 12.32°E
Report Text: EKRK 281050Z AUTO 10017G27KT 9999NDV FEW021/// 04/01 Q1024
Loading
Personal Weather Stations






























Interactive Weather Map New forecast layout! Learn more

10-Day Weather Forecast

Advertisements
Track Severe Weather on mobile